Toledo Express Airport
KTOL : now visible

Airfield :











YOU CAN JOIN US ON...

 
LOGIN :

Register | Disclaimer

   EN    FR    IT 

 









Legend :    VFR   Marginal VFR   IFR   Intensive IFR   Very Intensive IFR
Visi :
Ceiling :
>= 8 km
>= 3000ft
5 to 8 km
1000 to 3000 ft
1500m to 5 km
500 to 1000 ft
800 to 1500m
200 to 500 ft
< 800m
< 200 ft
Symbols :   Thunderstorms  Fog  Heavy snow  Heavy precipitations  Wind > 20 kt






- Airport Elevation : 683 ft
- IATA code : TOL


KTOL - Toledo Express

CURRENT METAR :
  • 130352Z 17007KT 10SM CLR 02/M04 A3017 RMK AO2 SLP225 T00171044

EXPIRED METARs :
  • 130252Z 18007KT 10SM CLR 02/M04 A3020 RMK AO2 SLP234 T00221044 56020
  • 130152Z 17007KT 10SM CLR 02/M04 A3022 RMK AO2 SLP243 T00221044

TAF KTOL
Valid from the 13 at 00:00 until the 14 at 00:00 UTC


122320Z 1300/1324 18010KT P6SM SCT250
FM131200 16007KT P6SM BKN250



MET'MAP, your aeronautical weather chart ! - Copyright ORBIFLY December 2007 - Disclaimer

ORBIFLY MET'MAP TEAM :

Programming & Development : Alexandra Zaïnal
Concept & original design : Baudouin d'Aumeries
Assistance for programming : Marc-Olivier Méhu
Technical & hardware support : Manuel Goepfert

Contact : metmap@orbifly.com




SOURCES & CREDITS :

   NOAA       Earth
Advisory